Terminal Aerodrome Forecast
Issued by NWS

Home | Current Version | Previous Version | Graphics & Text | Print | Product List | Glossary On
Versions: 1 2 3 4 5 6 7 8 9 10 11 12 13 14 15 16 17 18 19 20 21 22 23 24 25 26 27 28 29 30
225
FTUS43 KDLH 251725
TAFHIB
TAF
KHIB 251725Z 2518/2618 11011G17KT P6SM OVC021
     FM252100 11009G16KT P6SM BKN028 OVC040
     FM260700 11004KT P6SM BKN015
     FM260900 06005KT P6SM SCT008 BKN019
     FM261400 05007KT P6SM BKN008 OVC017=

USA.gov is the U.S. government's official web portal to all federal, state and local government web resources and services.